Time;durP1;ratioP1;P1;durP2;ratioP2;P2;SDS_P1;SDS_P2;PMS_P1;PMS_P2;Temp;Humidity;BMP_temperature;BMP_pressure;BME280_temperature;BME280_humidity;BME280_pressure;Samples;Min_cycle;Max_cycle;Signal;HPM_P1;HPM_P2
2022/11/15 00:00:54;;;;;;;19.85;15.82;;;11.80;1.00;;;;;;5032509;28;20022;-62
2022/11/15 00:03:26;;;;;;;21.10;17.65;;;11.90;1.00;;;;;;5031904;28;20215;-61
2022/11/15 00:05:52;;;;;;;21.60;17.52;;;11.80;1.00;;;;;;5032469;28;20502;-62
2022/11/15 00:08:18;;;;;;;22.02;16.90;;;11.70;1.00;;;;;;5031803;28;20056;-62
2022/11/15 00:10:55;;;;;;;23.25;18.25;;;11.70;1.00;;;;;;5032320;28;20072;-62
2022/11/15 00:13:21;;;;;;;22.67;18.63;;;11.70;1.00;;;;;;5031431;28;20033;-62
2022/11/15 00:15:46;;;;;;;21.17;17.35;;;11.80;1.00;;;;;;5027911;28;20034;-62
2022/11/15 00:18:13;;;;;;;21.75;17.25;;;11.70;1.00;;;;;;5031750;28;20467;-62
2022/11/15 00:20:39;;;;;;;19.48;16.90;;;11.70;1.00;;;;;;5031976;28;20036;-62
2022/11/15 00:23:05;;;;;;;21.33;17.33;;;11.80;1.00;;;;;;5031635;28;20025;-62
2022/11/15 00:25:31;;;;;;;24.02;18.13;;;11.80;1.00;;;;;;5030276;28;20017;-62
2022/11/15 00:27:58;;;;;;;22.65;16.92;;;11.70;1.00;;;;;;5031615;28;20036;-62
2022/11/15 00:30:24;;;;;;;22.55;16.77;;;11.70;1.00;;;;;;5031908;28;20022;-62
2022/11/15 00:32:50;;;;;;;20.17;17.08;;;11.70;1.00;;;;;;5031622;28;20033;-62
2022/11/15 00:35:16;;;;;;;21.92;16.88;;;11.60;1.00;;;;;;5031699;28;20450;-62
2022/11/15 00:37:42;;;;;;;23.20;17.48;;;11.50;1.00;;;;;;5031303;28;20033;-62
2022/11/15 00:40:08;;;;;;;21.67;17.83;;;11.50;1.00;;;;;;5031501;28;20033;-62
2022/11/15 00:42:34;;;;;;;20.73;17.20;;;11.50;1.00;;;;;;5031569;28;20049;-61
2022/11/15 00:44:59;;;;;;;21.23;17.17;;;11.50;1.00;;;;;;5031414;28;20491;-62
2022/11/15 00:47:25;;;;;;;20.95;16.45;;;11.50;1.00;;;;;;5031336;28;20032;-61
2022/11/15 00:49:50;;;;;;;19.25;16.77;;;11.60;1.00;;;;;;5031667;28;20030;-62
2022/11/15 00:52:16;;;;;;;23.33;17.15;;;11.50;1.00;;;;;;5031050;28;20360;-62
2022/11/15 00:54:41;;;;;;;22.88;18.67;;;11.50;1.00;;;;;;5031708;28;20059;-61
2022/11/15 00:57:07;;;;;;;21.70;16.42;;;11.40;1.00;;;;;;5030229;28;20030;-62
2022/11/15 00:59:33;;;;;;;22.90;16.80;;;11.50;1.00;;;;;;5031512;28;20041;-61
2022/11/15 01:01:58;;;;;;;19.13;15.40;;;11.50;1.00;;;;;;5031839;28;20106;-62
2022/11/15 01:04:24;;;;;;;21.42;17.08;;;11.50;1.00;;;;;;5027242;28;20030;-62
2022/11/15 01:06:49;;;;;;;19.38;16.42;;;11.50;1.00;;;;;;5021508;28;20162;-62
2022/11/15 01:09:15;;;;;;;22.45;17.20;;;11.60;1.00;;;;;;5031385;28;20057;-62
2022/11/15 01:11:41;;;;;;;19.30;16.60;;;11.50;1.00;;;;;;5031286;28;20374;-62
2022/11/15 01:14:06;;;;;;;21.35;17.05;;;11.40;1.00;;;;;;5031546;28;20475;-62
2022/11/15 01:16:33;;;;;;;20.38;15.77;;;11.40;1.00;;;;;;5031310;28;20028;-62
2022/11/15 01:18:59;;;;;;;19.20;16.20;;;11.30;1.00;;;;;;5031305;28;20021;-62
2022/11/15 01:21:25;;;;;;;22.75;17.35;;;11.40;1.00;;;;;;5031132;28;20096;-62
2022/11/15 01:23:55;;;;;;;20.27;16.13;;;11.40;1.00;;;;;;5031298;28;20053;-62
2022/11/15 01:26:21;;;;;;;21.25;17.08;;;11.40;1.00;;;;;;5034397;28;20028;-62
2022/11/15 01:28:47;;;;;;;19.30;15.93;;;11.50;1.00;;;;;;5035013;28;20030;-62
2022/11/15 01:31:19;;;;;;;18.58;15.57;;;11.50;1.00;;;;;;5034749;28;20099;-61
2022/11/15 01:33:45;;;;;;;21.95;16.67;;;11.40;1.00;;;;;;5034663;28;20087;-62
2022/11/15 01:36:14;;;;;;;21.35;16.45;;;11.40;1.00;;;;;;5035033;28;20033;-62
2022/11/15 01:38:39;;;;;;;19.02;16.50;;;11.40;1.00;;;;;;5034798;28;20119;-61
2022/11/15 01:41:05;;;;;;;22.55;15.98;;;11.40;1.00;;;;;;5035317;28;20025;-62
2022/11/15 01:43:34;;;;;;;19.80;15.10;;;11.40;1.00;;;;;;5034759;28;20438;-61
2022/11/15 01:46:17;;;;;;;18.48;15.93;;;11.40;1.00;;;;;;5034698;28;20071;-61
2022/11/15 01:48:43;;;;;;;20.73;16.20;;;11.40;1.00;;;;;;5034391;28;20049;-62
2022/11/15 01:51:13;;;;;;;18.98;15.45;;;11.40;1.00;;;;;;5032796;28;20021;-62
2022/11/15 01:53:41;;;;;;;20.17;16.25;;;11.30;1.00;;;;;;5034507;28;20041;-62
2022/11/15 01:56:11;;;;;;;20.42;16.10;;;11.10;1.00;;;;;;5034637;28;20090;-62
2022/11/15 01:58:39;;;;;;;19.20;15.90;;;11.20;1.00;;;;;;5020619;28;20033;-62
2022/11/15 02:01:05;;;;;;;20.23;16.05;;;11.20;1.00;;;;;;5034365;28;20570;-61
2022/11/15 02:03:38;;;;;;;16.88;15.00;;;11.20;1.00;;;;;;5034624;28;20124;-61
2022/11/15 02:06:05;;;;;;;18.40;15.43;;;11.30;1.00;;;;;;5034624;28;20026;-61
2022/11/15 02:08:30;;;;;;;19.27;15.70;;;11.20;1.00;;;;;;5034489;28;20037;-61
2022/11/15 02:10:56;;;;;;;16.80;15.00;;;11.20;1.00;;;;;;5034214;28;20475;-61
2022/11/15 02:13:22;;;;;;;18.52;15.95;;;11.20;1.00;;;;;;5034356;28;20033;-62
2022/11/15 02:16:15;;;;;;;17.02;15.10;;;11.30;1.00;;;;;;5065550;28;20125;-61
2022/11/15 02:19:09;;;;;;;19.25;14.77;;;11.20;1.00;;;;;;5039178;28;20068;-61
2022/11/15 02:22:20;;;;;;;20.58;15.77;;;11.20;1.00;;;;;;5050268;28;20017;-61
2022/11/15 02:24:54;;;;;;;18.20;15.38;;;11.20;1.00;;;;;;5025349;28;20026;-61
2022/11/15 02:27:20;;;;;;;19.65;16.10;;;11.00;1.00;;;;;;5031898;28;20041;-62
2022/11/15 02:30:16;;;;;;;17.48;14.32;;;11.20;1.00;;;;;;5033821;28;20018;-61
2022/11/15 02:32:54;;;;;;;16.65;14.38;;;11.20;1.00;;;;;;5034026;28;20072;-61
2022/11/15 02:35:29;;;;;;;17.30;15.10;;;11.20;1.00;;;;;;5020246;28;20104;-61
2022/11/15 02:38:06;;;;;;;17.90;14.90;;;11.30;1.00;;;;;;5033837;28;20426;-61
2022/11/15 02:40:54;;;;;;;18.90;15.27;;;11.20;1.00;;;;;;5021234;28;20013;-61
2022/11/15 02:43:56;;;;;;;16.20;14.05;;;11.20;1.00;;;;;;5033612;28;20112;-61
2022/11/15 02:49:28;;;;;;;18.73;14.65;;;11.20;1.00;;;;;;5033420;28;20060;-61
2022/11/15 02:51:55;;;;;;;20.63;15.48;;;11.30;1.00;;;;;;5033151;28;20026;-62
2022/11/15 02:54:26;;;;;;;16.90;14.52;;;11.10;1.00;;;;;;5033351;28;20159;-62
2022/11/15 02:56:55;;;;;;;20.20;15.07;;;11.20;1.00;;;;;;5019672;28;20017;-61
2022/11/15 02:59:42;;;;;;;16.92;14.73;;;11.20;1.00;;;;;;5040314;28;20386;-61
2022/11/15 03:02:40;;;;;;;18.05;14.63;;;11.20;1.00;;;;;;5037235;28;20068;-62
2022/11/15 03:05:30;;;;;;;16.38;14.00;;;11.10;1.00;;;;;;5033358;28;20072;-62
2022/11/15 03:08:10;;;;;;;18.15;14.27;;;11.20;1.00;;;;;;5020833;28;20379;-62
2022/11/15 03:10:45;;;;;;;18.40;14.77;;;11.20;1.00;;;;;;5033160;28;20029;-61
2022/11/15 03:13:17;;;;;;;17.25;14.10;;;11.20;1.00;;;;;;5033089;28;20380;-61
2022/11/15 03:15:52;;;;;;;18.98;14.13;;;11.10;1.00;;;;;;5032665;28;20071;-62
2022/11/15 03:18:38;;;;;;;16.13;14.38;;;11.10;1.00;;;;;;5032844;28;20120;-61
2022/11/15 03:21:07;;;;;;;16.60;14.02;;;11.00;1.00;;;;;;5032753;28;20029;-61
2022/11/15 03:23:36;;;;;;;18.02;14.90;;;11.00;1.00;;;;;;5023301;28;20438;-61
2022/11/15 03:26:04;;;;;;;17.27;13.52;;;10.90;1.00;;;;;;5032685;28;20455;-61
2022/11/15 03:28:45;;;;;;;19.10;14.00;;;10.90;1.00;;;;;;5031536;28;20328;-61
2022/11/15 03:34:02;;;;;;;19.55;14.48;;;11.00;1.00;;;;;;5032511;28;20048;-61
2022/11/15 03:36:31;;;;;;;18.55;14.93;;;11.00;1.00;;;;;;5032695;28;20028;-61
2022/11/15 03:39:01;;;;;;;16.02;14.32;;;11.10;1.00;;;;;;5032424;28;20091;-62
2022/11/15 03:42:00;;;;;;;18.42;15.05;;;11.30;1.00;;;;;;5032875;28;20025;-61
2022/11/15 03:44:54;;;;;;;17.58;14.43;;;11.30;1.00;;;;;;5025266;28;20026;-62
2022/11/15 03:47:37;;;;;;;17.50;13.60;;;11.10;1.00;;;;;;5030442;28;20033;-61
2022/11/15 03:50:10;;;;;;;16.80;13.55;;;11.20;1.00;;;;;;5032253;28;20167;-61
2022/11/15 03:52:37;;;;;;;19.58;15.15;;;11.30;1.00;;;;;;5032047;28;20033;-62
2022/11/15 03:55:04;;;;;;;16.98;13.90;;;11.30;1.00;;;;;;5030638;28;20112;-61
2022/11/15 03:57:30;;;;;;;16.65;14.27;;;11.30;1.00;;;;;;5032239;28;20068;-61
2022/11/15 03:59:55;;;;;;;19.05;13.98;;;11.20;1.00;;;;;;5043869;28;20427;-61
2022/11/15 04:02:21;;;;;;;15.85;14.02;;;11.30;1.00;;;;;;5034336;28;20471;-62
2022/11/15 04:04:46;;;;;;;17.48;14.35;;;11.30;1.00;;;;;;5031846;28;20553;-62
2022/11/15 04:07:12;;;;;;;17.40;15.18;;;11.30;1.00;;;;;;5031980;28;20025;-61
2022/11/15 04:10:01;;;;;;;16.58;14.20;;;11.30;1.00;;;;;;5032227;28;20017;-61
2022/11/15 04:12:32;;;;;;;16.95;14.10;;;11.30;1.00;;;;;;5034037;28;20565;-62
2022/11/15 04:15:06;;;;;;;15.80;13.35;;;11.30;1.00;;;;;;5029909;28;20112;-62
2022/11/15 04:17:36;;;;;;;17.10;14.07;;;11.40;1.00;;;;;;5032112;28;20078;-62
2022/11/15 04:25:45;;;;;;;14.70;13.10;;;11.30;1.00;;;;;;5018656;28;20488;-61
2022/11/15 04:28:11;;;;;;;17.40;13.95;;;11.20;1.00;;;;;;5032027;28;20026;-62
2022/11/15 04:30:37;;;;;;;19.20;14.25;;;11.40;1.00;;;;;;5030832;28;20340;-61
2022/11/15 04:33:03;;;;;;;21.20;15.45;;;11.40;1.00;;;;;;5031171;28;20132;-62
2022/11/15 04:35:28;;;;;;;17.33;13.63;;;11.40;1.00;;;;;;5031627;28;20099;-61
2022/11/15 04:37:55;;;;;;;17.02;13.75;;;11.50;1.00;;;;;;5031609;28;20041;-62
2022/11/15 04:40:21;;;;;;;18.02;13.45;;;11.40;1.00;;;;;;5031382;28;20021;-61
2022/11/15 04:42:46;;;;;;;17.15;13.38;;;11.40;1.00;;;;;;5031562;28;20029;-61
2022/11/15 04:45:12;;;;;;;17.10;13.52;;;11.40;1.00;;;;;;5031304;28;20040;-62
2022/11/15 04:47:37;;;;;;;15.77;12.93;;;11.30;1.00;;;;;;5031394;28;20119;-61
2022/11/15 04:50:04;;;;;;;16.42;13.32;;;11.30;1.00;;;;;;5031416;28;20463;-61
2022/11/15 04:52:29;;;;;;;20.88;14.45;;;11.40;1.00;;;;;;5030959;28;20069;-62
2022/11/15 04:54:55;;;;;;;14.77;12.88;;;11.40;1.00;;;;;;5031780;28;20455;-61
2022/11/15 04:57:20;;;;;;;16.75;13.85;;;11.40;1.00;;;;;;5031330;28;20021;-62
2022/11/15 04:59:46;;;;;;;16.08;13.30;;;11.30;1.00;;;;;;5032124;28;20097;-61
2022/11/15 05:02:12;;;;;;;15.80;12.95;;;11.40;1.00;;;;;;5035597;28;20017;-61
2022/11/15 05:04:37;;;;;;;16.15;13.00;;;11.50;1.00;;;;;;5035503;28;20021;-61
2022/11/15 05:07:06;;;;;;;16.58;13.52;;;11.50;1.00;;;;;;5035743;28;20033;-61
2022/11/15 05:09:31;;;;;;;16.55;13.35;;;11.50;1.00;;;;;;5035236;28;20116;-61
2022/11/15 05:11:57;;;;;;;17.85;14.55;;;11.50;1.00;;;;;;5035176;28;20544;-61
2022/11/15 05:14:23;;;;;;;17.30;14.05;;;11.50;1.00;;;;;;5033791;28;20037;-62
2022/11/15 05:16:48;;;;;;;15.98;13.10;;;11.50;1.00;;;;;;5035054;28;20056;-61
2022/11/15 05:19:14;;;;;;;23.00;13.95;;;11.60;1.00;;;;;;5035318;28;20081;-61
2022/11/15 05:21:40;;;;;;;15.50;13.13;;;11.60;1.00;;;;;;5034980;28;20455;-62
2022/11/15 05:24:06;;;;;;;18.40;14.25;;;11.60;1.00;;;;;;5034890;28;20033;-61
2022/11/15 05:26:32;;;;;;;16.40;13.80;;;11.60;1.00;;;;;;5034878;28;20029;-61
2022/11/15 05:32:20;;;;;;;20.42;14.32;;;11.60;1.00;;;;;;5029268;28;20071;-62
2022/11/15 05:34:46;;;;;;;20.55;14.43;;;11.70;1.00;;;;;;5028096;28;20380;-62
2022/11/15 05:37:13;;;;;;;18.95;13.73;;;11.60;1.00;;;;;;5034421;28;20108;-62
2022/11/15 05:39:39;;;;;;;14.13;11.82;;;11.70;1.00;;;;;;5034904;28;20170;-61
2022/11/15 05:42:11;;;;;;;15.05;12.38;;;11.60;1.00;;;;;;5035016;28;20021;-61
2022/11/15 05:44:39;;;;;;;15.18;12.32;;;11.50;1.00;;;;;;5034479;28;20014;-61
2022/11/15 05:47:08;;;;;;;14.38;11.90;;;11.50;1.00;;;;;;5034470;28;20106;-62
2022/11/15 05:49:36;;;;;;;14.10;12.55;;;11.40;1.00;;;;;;5034316;28;20507;-61
2022/11/15 05:52:06;;;;;;;14.45;12.93;;;11.50;1.00;;;;;;5034279;28;20442;-62
2022/11/15 05:54:33;;;;;;;15.93;13.00;;;11.40;1.00;;;;;;5034240;28;20025;-61
2022/11/15 05:56:59;;;;;;;12.95;11.63;;;11.40;1.00;;;;;;5034627;28;20036;-61
2022/11/15 05:59:27;;;;;;;15.95;12.73;;;11.30;1.00;;;;;;5034598;28;20491;-61
2022/11/15 06:01:53;;;;;;;14.07;12.00;;;11.10;99.90;;;;;;5034531;28;20026;-61
2022/11/15 06:04:19;;;;;;;15.15;12.77;;;11.00;99.90;;;;;;5034462;28;20021;-62
2022/11/15 06:06:44;;;;;;;12.15;10.88;;;10.80;99.90;;;;;;5034245;28;20025;-61
2022/11/15 06:09:10;;;;;;;12.60;11.18;;;10.80;99.90;;;;;;5034400;28;20028;-61
2022/11/15 06:11:35;;;;;;;13.40;11.88;;;10.60;99.90;;;;;;5033415;28;20425;-61
2022/11/15 06:14:01;;;;;;;13.02;11.52;;;10.60;99.90;;;;;;5032844;28;20056;-61
2022/11/15 06:16:27;;;;;;;12.93;11.30;;;10.70;99.90;;;;;;5035308;28;20021;-61
2022/11/15 06:18:52;;;;;;;15.98;11.85;;;10.80;99.90;;;;;;5040737;28;20439;-61
2022/11/15 06:21:18;;;;;;;15.73;12.52;;;10.80;99.90;;;;;;5033941;28;20108;-62
2022/11/15 06:23:43;;;;;;;;;;;10.50;99.90;;;;;;5034142;28;20022;-62
2022/11/15 06:26:09;;;;;;;16.75;11.88;;;10.50;99.90;;;;;;5033756;28;19905;-61
2022/11/15 06:28:35;;;;;;;;;;;10.60;99.90;;;;;;5033872;28;20377;-61
2022/11/15 06:31:04;;;;;;;;;;;10.70;99.90;;;;;;5034039;28;19924;-61
2022/11/15 06:33:30;;;;;;;14.13;11.82;;;10.70;99.90;;;;;;5033718;28;19920;-62
2022/11/15 06:35:55;;;;;;;15.48;11.23;;;10.80;99.90;;;;;;5033905;28;20017;-61
2022/11/15 06:38:21;;;;;;;13.88;12.45;;;10.90;94.40;;;;;;5033387;28;20033;-61
2022/11/15 06:40:47;;;;;;;13.95;11.60;;;11.00;1.00;;;;;;5033705;28;20049;-61
2022/11/15 06:43:12;;;;;;;13.45;12.13;;;11.00;1.00;;;;;;5034104;28;20030;-61
2022/11/15 06:45:38;;;;;;;14.35;11.55;;;10.90;1.00;;;;;;5031807;28;20014;-61
2022/11/15 06:48:04;;;;;;;15.50;11.65;;;11.00;1.00;;;;;;5033176;28;20046;-61
2022/11/15 06:50:29;;;;;;;13.25;11.40;;;11.00;1.00;;;;;;5033311;28;20029;-61
2022/11/15 06:53:00;;;;;;;15.15;11.68;;;11.10;1.00;;;;;;5033235;28;20127;-61
2022/11/15 06:55:25;;;;;;;15.07;11.93;;;11.10;1.00;;;;;;5033228;28;20467;-61
2022/11/15 06:57:52;;;;;;;12.52;10.55;;;11.10;1.00;;;;;;5033499;28;20018;-61
2022/11/15 07:00:19;;;;;;;13.10;11.75;;;11.10;1.00;;;;;;5033225;28;20068;-61
2022/11/15 07:02:45;;;;;;;12.77;11.15;;;11.10;1.00;;;;;;5033211;28;20036;-61
2022/11/15 07:05:11;;;;;;;13.02;11.48;;;11.20;1.00;;;;;;5033435;28;20457;-61
2022/11/15 07:07:37;;;;;;;13.25;11.85;;;11.10;1.00;;;;;;5032889;28;20224;-61
2022/11/15 07:10:03;;;;;;;16.02;12.57;;;11.20;1.00;;;;;;5033401;28;20490;-61
2022/11/15 07:12:28;;;;;;;14.82;11.00;;;11.20;1.00;;;;;;5031636;28;20470;-61
2022/11/15 07:14:54;;;;;;;15.95;13.07;;;11.10;1.00;;;;;;5033378;28;20029;-61
2022/11/15 07:17:20;;;;;;;14.95;11.27;;;11.10;1.00;;;;;;5032835;28;20029;-61
2022/11/15 07:19:45;;;;;;;14.20;12.20;;;11.10;1.00;;;;;;5033103;28;20108;-61
2022/11/15 07:22:11;;;;;;;18.17;12.98;;;11.10;1.00;;;;;;5032338;28;20379;-61
2022/11/15 07:24:36;;;;;;;18.10;13.85;;;11.00;1.00;;;;;;5032568;28;20029;-61
2022/11/15 07:27:02;;;;;;;16.73;12.43;;;11.10;1.00;;;;;;5032892;28;20029;-61
2022/11/15 07:29:27;;;;;;;15.25;12.85;;;11.10;1.00;;;;;;5032770;28;20555;-61
2022/11/15 07:31:53;;;;;;;14.50;12.57;;;11.10;1.00;;;;;;5032615;28;20025;-61
2022/11/15 07:34:19;;;;;;;14.35;12.23;;;11.20;1.00;;;;;;5032796;28;20052;-61
2022/11/15 07:36:45;;;;;;;18.20;14.57;;;11.30;1.00;;;;;;5032840;28;20383;-61
2022/11/15 07:39:11;;;;;;;17.25;14.10;;;11.10;1.00;;;;;;5032799;28;20033;-61
2022/11/15 07:41:38;;;;;;;19.35;14.70;;;11.10;1.00;;;;;;5032513;28;20104;-61
2022/11/15 07:44:04;;;;;;;17.35;14.35;;;11.20;1.00;;;;;;5032717;28;20014;-61
2022/11/15 07:46:31;;;;;;;21.17;14.73;;;11.20;1.00;;;;;;5027764;28;20018;-61
2022/11/15 07:48:56;;;;;;;18.02;14.00;;;11.30;1.00;;;;;;5022721;28;20049;-61
2022/11/15 07:51:22;;;;;;;16.98;14.23;;;11.30;1.00;;;;;;5017618;28;20455;-61
2022/11/15 07:53:47;;;;;;;17.60;14.63;;;11.40;1.00;;;;;;5031538;28;20056;-61
2022/11/15 07:56:13;;;;;;;18.23;15.18;;;11.40;1.00;;;;;;5033806;28;20020;-61
2022/11/15 07:58:39;;;;;;;20.58;15.40;;;11.40;1.00;;;;;;5051686;28;20390;-61
2022/11/15 08:01:06;;;;;;;20.92;15.38;;;11.40;1.00;;;;;;5038571;28;20079;-62
2022/11/15 08:03:32;;;;;;;20.67;17.27;;;11.50;1.00;;;;;;5031053;28;20038;-57
2022/11/15 08:05:58;;;;;;;21.52;17.42;;;11.50;1.00;;;;;;5031468;28;20071;-59
2022/11/15 08:08:24;;;;;;;16.38;14.30;;;11.60;1.00;;;;;;5031038;28;20158;-60
2022/11/15 08:10:50;;;;;;;22.17;16.70;;;11.50;1.00;;;;;;5029990;28;20553;-56
2022/11/15 08:13:16;;;;;;;24.33;17.40;;;11.50;1.00;;;;;;5030646;28;20078;-59
2022/11/15 08:15:42;;;;;;;20.63;17.35;;;11.60;1.00;;;;;;5030815;28;20033;-50
2022/11/15 08:18:13;;;;;;;23.70;16.88;;;11.60;1.00;;;;;;5030916;28;20036;-51
2022/11/15 08:20:39;;;;;;;22.25;17.60;;;11.50;1.00;;;;;;5022952;28;20029;-56
2022/11/15 08:23:06;;;;;;;23.27;18.13;;;11.50;1.00;;;;;;5025375;28;20127;-60
2022/11/15 08:25:33;;;;;;;19.50;16.42;;;11.50;1.00;;;;;;5030770;28;20044;-57
2022/11/15 08:28:01;;;;;;;25.17;17.98;;;11.50;1.00;;;;;;5030740;28;20029;-60
2022/11/15 08:30:27;;;;;;;22.05;16.48;;;11.50;1.00;;;;;;5030081;28;20111;-60
2022/11/15 08:32:53;;;;;;;27.75;17.65;;;11.50;1.00;;;;;;5031041;28;20466;-61
2022/11/15 08:35:20;;;;;;;22.95;17.92;;;11.60;1.00;;;;;;5016834;28;20065;-55
2022/11/15 08:37:46;;;;;;;19.60;15.77;;;11.60;1.00;;;;;;5029840;28;20104;-61
2022/11/15 08:40:13;;;;;;;22.05;15.68;;;11.70;1.00;;;;;;5029538;28;20047;-61
2022/11/15 08:42:39;;;;;;;20.85;18.35;;;11.60;1.00;;;;;;5030613;28;20416;-59
2022/11/15 08:45:06;;;;;;;19.55;16.33;;;11.50;1.00;;;;;;5030211;28;20072;-60
2022/11/15 08:47:31;;;;;;;23.10;18.13;;;11.60;1.00;;;;;;5030808;28;20121;-60
2022/11/15 08:49:57;;;;;;;26.27;18.10;;;11.60;1.00;;;;;;5030931;28;20080;-55
2022/11/15 08:52:22;;;;;;;24.73;19.05;;;11.70;1.00;;;;;;5030790;28;20068;-60
2022/11/15 08:54:48;;;;;;;24.40;18.38;;;11.70;1.00;;;;;;5033702;28;20791;-59
2022/11/15 08:57:14;;;;;;;23.73;19.20;;;11.80;1.00;;;;;;5041989;28;20059;-63
2022/11/15 08:59:40;;;;;;;22.30;18.52;;;11.80;1.00;;;;;;5030386;28;20484;-59
2022/11/15 09:02:06;;;;;;;27.60;19.63;;;11.90;1.00;;;;;;5030436;28;20064;-55
2022/11/15 09:04:32;;;;;;;27.45;19.55;;;11.90;1.00;;;;;;5030959;28;20053;-56
2022/11/15 09:06:58;;;;;;;21.67;17.85;;;11.90;1.00;;;;;;5044372;28;20026;-55
2022/11/15 09:09:24;;;;;;;23.00;19.02;;;12.00;1.00;;;;;;5030747;28;20414;-61
2022/11/15 09:11:50;;;;;;;25.55;17.48;;;12.00;1.00;;;;;;5030234;28;20087;-60
2022/11/15 09:14:16;;;;;;;24.13;18.65;;;12.00;1.00;;;;;;5025811;28;20037;-59
2022/11/15 09:16:41;;;;;;;22.85;18.08;;;12.00;1.00;;;;;;5025634;28;20159;-57
2022/11/15 09:19:07;;;;;;;25.33;19.33;;;12.00;1.00;;;;;;5030345;28;20136;-60
2022/11/15 09:21:33;;;;;;;21.05;17.23;;;12.10;1.00;;;;;;5030124;28;20028;-59
2022/11/15 09:23:58;;;;;;;19.30;16.83;;;12.00;1.00;;;;;;5030145;28;20033;-58
2022/11/15 09:26:24;;;;;;;28.25;20.35;;;11.90;1.00;;;;;;5030598;28;20020;-58
2022/11/15 09:28:50;;;;;;;29.17;20.80;;;12.00;1.00;;;;;;5030796;28;20037;-60
2022/11/15 09:31:16;;;;;;;26.73;19.75;;;12.10;1.00;;;;;;5030252;28;20083;-61
2022/11/15 09:33:44;;;;;;;27.58;20.30;;;12.10;1.00;;;;;;5014645;28;20587;-61
2022/11/15 09:36:10;;;;;;;26.95;20.83;;;11.90;1.00;;;;;;5030477;28;20017;-63
2022/11/15 09:38:36;;;;;;;29.25;20.70;;;11.90;1.00;;;;;;5030196;28;20037;-63
2022/11/15 09:41:39;;;;;;;35.80;22.60;;;11.80;1.00;;;;;;5030391;28;20039;-63
2022/11/15 09:44:26;;;;;;;32.42;24.38;;;11.90;1.00;;;;;;5014765;28;20076;-73
2022/11/15 09:47:14;;;;;;;27.42;21.85;;;11.80;1.00;;;;;;5039355;28;20033;-73
2022/11/15 09:49:39;;;;;;;26.95;21.20;;;11.90;1.00;;;;;;5034395;28;20067;-60
2022/11/15 09:52:08;;;;;;;28.45;22.20;;;11.70;1.00;;;;;;5034331;28;20037;-63
2022/11/15 09:54:46;;;;;;;25.08;18.90;;;11.80;1.00;;;;;;5034310;28;20474;-63
2022/11/15 09:57:13;;;;;;;24.27;19.65;;;11.80;1.00;;;;;;5033755;28;20386;-63
2022/11/15 10:00:17;;;;;;;23.95;20.17;;;11.80;1.00;;;;;;5034381;28;20095;-64
2022/11/15 10:03:01;;;;;;;24.52;19.80;;;11.80;1.00;;;;;;5034446;28;20509;-63
2022/11/15 10:05:28;;;;;;;25.85;19.80;;;11.80;1.00;;;;;;5034392;28;20109;-66
2022/11/15 10:08:04;;;;;;;27.65;20.77;;;11.70;1.00;;;;;;5034327;28;20160;-70
2022/11/15 10:11:00;;;;;;;27.13;20.00;;;11.80;1.00;;;;;;5043370;28;20066;-71
2022/11/15 10:13:30;;;;;;;27.50;22.13;;;11.80;4.60;;;;;;5034069;28;20079;-59
2022/11/15 10:16:19;;;;;;;30.13;21.77;;;11.80;1.00;;;;;;5034272;28;20113;-74
2022/11/15 10:19:29;;;;;;;28.77;21.08;;;11.90;1.00;;;;;;5029152;28;20025;-71
2022/11/15 10:22:26;;;;;;;29.88;22.58;;;11.90;2.60;;;;;;5034427;28;20045;-71
2022/11/15 10:25:02;;;;;;;26.35;22.00;;;12.00;1.90;;;;;;5037601;28;20026;-70
2022/11/15 10:27:29;;;;;;;28.33;22.23;;;11.90;1.00;;;;;;5032240;28;20049;-71
2022/11/15 10:29:55;;;;;;;26.60;21.30;;;11.80;1.00;;;;;;5033457;28;20037;-60
2022/11/15 10:32:21;;;;;;;25.95;20.48;;;12.00;1.00;;;;;;5033806;28;20036;-62
2022/11/15 10:34:48;;;;;;;25.92;20.40;;;12.00;1.00;;;;;;5033332;28;20112;-65
2022/11/15 10:37:14;;;;;;;27.67;21.70;;;11.90;1.00;;;;;;5029121;28;20014;-66
2022/11/15 10:39:40;;;;;;;26.83;19.98;;;11.90;57.20;;;;;;5033334;28;20365;-67
2022/11/15 10:42:16;;;;;;;24.90;20.60;;;11.80;30.30;;;;;;5033722;28;20032;-63
2022/11/15 10:44:44;;;;;;;26.52;20.67;;;11.70;99.90;;;;;;5033942;28;20115;-61
2022/11/15 10:47:30;;;;;;;26.23;20.05;;;11.60;99.90;;;;;;5034130;28;20414;-61
2022/11/15 10:50:06;;;;;;;31.38;23.33;;;11.60;99.90;;;;;;5033761;28;20076;-61
2022/11/15 10:52:34;;;;;;;30.60;23.77;;;11.70;99.90;;;;;;5033385;28;20045;-61
2022/11/15 10:55:03;;;;;;;32.88;26.05;;;11.80;99.90;;;;;;5033581;28;20475;-60
2022/11/15 10:57:38;;;;;;;33.03;24.83;;;11.80;99.90;;;;;;5033456;28;20057;-68
2022/11/15 11:00:22;;;;;;;32.55;24.95;;;11.80;99.90;;;;;;5033377;28;20026;-61
2022/11/15 11:02:57;;;;;;;29.30;23.00;;;11.80;99.90;;;;;;5033654;28;20037;-67
2022/11/15 11:05:37;;;;;;;31.23;25.85;;;11.90;66.00;;;;;;5033719;28;20020;-67
2022/11/15 11:08:15;;;;;;;39.42;29.08;;;11.80;46.90;;;;;;5033465;28;20053;-73
2022/11/15 11:10:58;;;;;;;32.97;25.50;;;11.90;29.60;;;;;;5033578;28;20036;-67
2022/11/15 11:13:26;;;;;;;33.20;25.42;;;11.90;23.10;;;;;;5033367;28;20037;-61
2022/11/15 11:16:24;;;;;;;32.22;25.25;;;11.90;12.20;;;;;;5033586;28;20028;-63
2022/11/15 11:19:22;;;;;;;34.03;26.77;;;11.70;16.00;;;;;;5017665;28;20483;-62
2022/11/15 11:21:58;;;;;;;35.58;26.33;;;11.80;14.80;;;;;;5036596;28;20021;-62
2022/11/15 11:24:38;;;;;;;37.03;27.40;;;11.80;9.80;;;;;;5041033;28;20029;-63
2022/11/15 11:27:17;;;;;;;35.22;25.92;;;11.80;8.90;;;;;;5017543;28;20056;-63
2022/11/15 11:29:58;;;;;;;29.90;24.50;;;11.80;9.90;;;;;;5032578;28;20030;-63
2022/11/15 11:32:42;;;;;;;33.78;26.00;;;11.80;7.80;;;;;;5019092;28;20026;-64
2022/11/15 11:35:30;;;;;;;32.17;25.20;;;11.90;3.00;;;;;;5061238;28;20037;-56
2022/11/15 11:38:33;;;;;;;33.55;26.40;;;11.90;8.20;;;;;;5032898;28;20091;-61
2022/11/15 11:41:20;;;;;;;31.08;23.88;;;12.00;9.00;;;;;;5021744;28;20352;-61
2022/11/15 11:44:23;;;;;;;29.60;23.65;;;12.00;3.00;;;;;;5031021;28;20478;-61
2022/11/15 11:47:03;;;;;;;29.85;23.77;;;12.10;7.10;;;;;;5032664;28;20037;-61
2022/11/15 11:49:38;;;;;;;29.13;23.42;;;12.10;2.40;;;;;;5032338;28;20073;-62
2022/11/15 11:52:27;;;;;;;29.80;24.02;;;12.10;1.00;;;;;;5032417;28;20044;-61
2022/11/15 11:54:56;;;;;;;30.00;23.63;;;12.10;2.10;;;;;;5032527;28;20084;-63
2022/11/15 11:57:56;;;;;;;28.73;24.60;;;12.10;1.00;;;;;;5032299;28;20542;-64
2022/11/15 12:00:28;;;;;;;30.92;25.33;;;12.20;4.30;;;;;;5018292;28;20454;-62
2022/11/15 12:03:24;;;;;;;31.65;24.35;;;12.20;1.00;;;;;;5032424;28;20025;-59
2022/11/15 12:05:52;;;;;;;35.88;28.30;;;12.20;2.10;;;;;;5032443;28;20048;-59
2022/11/15 12:08:36;;;;;;;35.83;25.88;;;12.30;1.00;;;;;;5031743;28;20037;-59
2022/11/15 12:11:12;;;;;;;38.05;26.90;;;12.30;1.00;;;;;;5032057;28;20025;-56
2022/11/15 12:13:38;;;;;;;35.25;27.55;;;12.20;1.00;;;;;;5032071;28;20125;-58
2022/11/15 12:16:33;;;;;;;35.67;26.83;;;12.20;1.00;;;;;;5032319;28;20155;-57
2022/11/15 12:19:02;;;;;;;31.55;25.25;;;12.10;1.00;;;;;;5023256;28;20045;-55
2022/11/15 12:21:36;;;;;;;26.83;22.00;;;12.10;1.00;;;;;;5033676;28;20025;-57
2022/11/15 12:24:08;;;;;;;33.83;25.02;;;12.00;1.00;;;;;;5043201;28;20078;-64
2022/11/15 12:26:40;;;;;;;33.83;25.15;;;12.00;1.00;;;;;;5031990;28;20486;-72
2022/11/15 12:29:16;;;;;;;30.23;23.08;;;12.20;1.00;;;;;;5014672;28;20091;-72
2022/11/15 12:31:47;;;;;;;29.27;21.75;;;12.20;1.00;;;;;;5032131;28;20036;-72
2022/11/15 12:34:22;;;;;;;25.15;20.80;;;12.30;1.00;;;;;;5030629;28;20073;-72
2022/11/15 12:36:50;;;;;;;26.13;21.50;;;12.40;1.00;;;;;;5032047;28;20179;-72
2022/11/15 12:39:17;;;;;;;24.70;19.95;;;12.30;1.00;;;;;;5032376;28;20112;-72
2022/11/15 12:42:03;;;;;;;32.38;24.15;;;12.30;1.00;;;;;;5031810;28;20064;-72
2022/11/15 12:44:35;;;;;;;29.15;23.08;;;12.20;1.00;;;;;;5031859;28;20037;-70
2022/11/15 12:47:03;;;;;;;30.92;23.25;;;12.30;1.00;;;;;;5032166;28;20376;-72
2022/11/15 12:49:29;;;;;;;28.27;21.67;;;12.30;1.00;;;;;;5031352;28;20403;-73
2022/11/15 12:51:58;;;;;;;26.85;21.35;;;12.30;1.00;;;;;;5046124;28;20033;-74
2022/11/15 12:54:23;;;;;;;32.15;26.23;;;12.40;1.00;;;;;;5043418;28;20402;-73
2022/11/15 12:57:32;;;;;;;31.02;24.95;;;12.40;1.00;;;;;;5031102;28;20025;-65
2022/11/15 13:00:15;;;;;;;30.75;24.48;;;12.40;1.00;;;;;;5028931;28;20147;-75
2022/11/15 13:02:43;;;;;;;31.10;25.25;;;12.40;1.00;;;;;;5031801;28;20017;-74
2022/11/15 13:05:22;;;;;;;27.65;22.23;;;12.40;1.00;;;;;;5031656;28;20025;-74
2022/11/15 13:07:47;;;;;;;31.75;24.60;;;12.50;1.00;;;;;;5031642;28;20118;-75
2022/11/15 13:10:13;;;;;;;34.92;25.80;;;12.50;1.00;;;;;;5063959;28;20495;-74